Aviation Digital Data Service (ADDS)

Output produced by TAFs form (1317 UTC 28 November 2014)
found at http://aviationweather.gov/adds/tafs/
 
KAMA 281120Z 2812/2912 23015KT P6SM SCT250